Time;durP1;ratioP1;P1;durP2;ratioP2;P2;SDS_P1;SDS_P2;PMS_P1;PMS_P2;Temp;Humidity;BMP_temperature;BMP_pressure;BME280_temperature;BME280_humidity;BME280_pressure;Samples;Min_cycle;Max_cycle;Signal;HPM_P1;HPM_P2
2022/05/23 00:02:18;;;;;;;3.87;3.03;;;21.10;68.00;;;;;;6202774;28;20229;-62
2022/05/23 00:05:21;;;;;;;3.47;3.13;;;21.10;67.50;;;;;;6202291;28;20308;-63
2022/05/23 00:08:28;;;;;;;4.13;3.50;;;21.10;67.60;;;;;;6196981;28;20244;-64
2022/05/23 00:11:31;;;;;;;5.40;3.50;;;21.00;67.70;;;;;;6200038;28;20232;-63
2022/05/23 00:14:34;;;;;;;4.13;3.73;;;21.00;67.90;;;;;;6201609;28;20230;-64
2022/05/23 00:17:39;;;;;;;4.80;3.20;;;21.00;68.20;;;;;;6203332;28;20230;-63
2022/05/23 00:20:42;;;;;;;3.60;3.30;;;21.00;69.00;;;;;;6200161;28;20545;-63
2022/05/23 00:23:45;;;;;;;3.47;3.27;;;20.90;69.10;;;;;;6203158;28;20236;-63
2022/05/23 00:26:51;;;;;;;3.90;3.60;;;20.90;69.10;;;;;;6203458;28;20594;-63
2022/05/23 00:29:54;;;;;;;4.57;4.17;;;20.90;69.70;;;;;;6203549;28;20581;-63
2022/05/23 00:36:19;;;;;;;4.30;3.90;;;20.80;69.80;;;;;;6203358;28;20245;-63
2022/05/23 00:39:22;;;;;;;3.60;3.30;;;20.80;69.70;;;;;;6203641;28;20229;-63
2022/05/23 00:45:52;;;;;;;4.27;3.40;;;20.60;69.20;;;;;;6203543;28;20541;-63
2022/05/23 00:48:58;;;;;;;3.37;3.07;;;20.60;69.10;;;;;;6202713;28;20249;-63
2022/05/23 00:52:06;;;;;;;3.53;3.20;;;20.50;69.20;;;;;;6203318;28;20240;-64
2022/05/23 00:55:15;;;;;;;4.57;3.47;;;20.50;69.80;;;;;;6202604;28;20681;-64
2022/05/23 00:58:23;;;;;;;3.87;3.57;;;20.50;69.50;;;;;;6203042;28;20225;-64
2022/05/23 01:01:29;;;;;;;3.70;3.40;;;20.50;69.50;;;;;;6202791;28;20705;-64
2022/05/23 01:04:34;;;;;;;3.57;3.27;;;20.50;70.30;;;;;;6202764;28;20673;-63
2022/05/23 01:07:37;;;;;;;3.70;3.40;;;20.40;69.80;;;;;;6202679;28;20568;-64
2022/05/23 01:10:41;;;;;;;4.20;3.73;;;20.40;70.50;;;;;;6202947;28;20556;-63
2022/05/23 01:13:44;;;;;;;4.70;4.30;;;20.40;70.80;;;;;;6188972;28;20676;-63
2022/05/23 01:16:47;;;;;;;3.70;3.40;;;20.40;71.00;;;;;;6202595;28;20233;-64
2022/05/23 01:19:52;;;;;;;4.73;3.43;;;20.40;70.90;;;;;;6203015;28;20230;-64
2022/05/23 01:23:07;;;;;;;4.40;4.10;;;20.50;71.10;;;;;;6202459;28;20234;-64
2022/05/23 01:26:12;;;;;;;3.33;3.03;;;20.50;70.60;;;;;;6202374;28;20533;-64
2022/05/23 01:29:16;;;;;;;4.10;3.77;;;20.50;70.30;;;;;;6202632;28;20241;-64
2022/05/23 01:32:19;;;;;;;4.20;3.80;;;20.50;70.40;;;;;;6202164;28;20240;-64
2022/05/23 01:35:22;;;;;;;4.03;3.63;;;20.40;70.40;;;;;;6202237;28;20248;-63
2022/05/23 01:38:26;;;;;;;3.73;3.43;;;20.40;70.40;;;;;;6201836;28;20668;-63
2022/05/23 01:41:31;;;;;;;4.27;3.90;;;20.30;70.00;;;;;;6201960;28;20245;-63
2022/05/23 01:44:34;;;;;;;4.00;3.70;;;20.30;70.40;;;;;;6201674;28;20688;-63
2022/05/23 01:47:37;;;;;;;3.60;3.30;;;20.20;70.20;;;;;;6202034;28;20280;-63
2022/05/23 01:50:40;;;;;;;3.43;3.13;;;20.30;69.70;;;;;;6201887;28;20240;-64
2022/05/23 01:53:45;;;;;;;3.27;3.00;;;20.30;69.40;;;;;;6202229;28;20234;-62
2022/05/23 01:56:49;;;;;;;3.20;2.97;;;20.30;69.30;;;;;;6201706;28;20244;-63
2022/05/23 02:03:14;;;;;;;3.77;3.47;;;20.30;68.80;;;;;;6201987;28;20238;-63
2022/05/23 02:06:17;;;;;;;3.67;3.33;;;20.30;68.60;;;;;;6201380;28;20245;-63
2022/05/23 02:09:26;;;;;;;4.00;3.60;;;20.30;68.50;;;;;;6201627;28;20590;-62
2022/05/23 02:12:30;;;;;;;4.10;3.70;;;20.30;68.20;;;;;;6201602;28;20316;-63
2022/05/23 02:15:34;;;;;;;3.20;2.93;;;20.20;68.10;;;;;;6201502;28;20241;-64
2022/05/23 02:18:37;;;;;;;4.80;3.00;;;20.20;68.30;;;;;;6198428;28;20230;-63
2022/05/23 02:21:40;;;;;;;3.27;2.97;;;20.10;68.70;;;;;;6202532;28;20225;-63
2022/05/23 02:24:44;;;;;;;4.00;3.00;;;20.20;69.40;;;;;;6201498;28;20202;-64
2022/05/23 02:27:48;;;;;;;4.33;3.40;;;20.20;68.20;;;;;;6200705;28;20234;-63
2022/05/23 02:30:51;;;;;;;4.47;3.37;;;20.20;67.80;;;;;;6201276;28;20546;-63
2022/05/23 02:33:55;;;;;;;3.60;3.30;;;20.20;67.50;;;;;;6200964;28;20601;-64
2022/05/23 02:36:58;;;;;;;3.20;2.90;;;20.10;67.50;;;;;;6201505;28;20244;-63
2022/05/23 02:40:01;;;;;;;3.60;3.30;;;20.20;68.20;;;;;;6201500;28;20236;-62
2022/05/23 02:43:06;;;;;;;3.43;3.13;;;20.20;68.40;;;;;;6201388;28;20237;-63
2022/05/23 02:46:09;;;;;;;3.40;3.10;;;20.20;68.50;;;;;;6200892;28;20238;-64
2022/05/23 02:49:13;;;;;;;3.77;3.27;;;20.20;68.60;;;;;;6201070;28;20229;-64
2022/05/23 02:52:17;;;;;;;4.23;3.83;;;20.20;69.40;;;;;;6200960;28;20225;-64
2022/05/23 02:55:20;;;;;;;3.13;2.90;;;20.20;69.70;;;;;;6200956;28;20248;-63
2022/05/23 02:58:25;;;;;;;4.17;3.43;;;20.30;69.60;;;;;;6200986;28;20557;-63
2022/05/23 03:01:28;;;;;;;3.80;3.27;;;20.30;69.90;;;;;;6201012;28;20582;-63
2022/05/23 03:04:31;;;;;;;3.57;3.27;;;20.20;70.40;;;;;;6200940;28;20229;-64
2022/05/23 03:07:34;;;;;;;4.30;3.90;;;20.20;70.60;;;;;;6200706;28;20248;-64
2022/05/23 03:10:38;;;;;;;3.60;3.30;;;20.20;70.50;;;;;;6202983;28;20256;-63
2022/05/23 03:13:42;;;;;;;3.97;3.67;;;20.20;70.70;;;;;;6205257;28;20233;-63
2022/05/23 03:16:45;;;;;;;4.47;3.87;;;20.20;70.70;;;;;;6205379;28;20237;-64
2022/05/23 03:19:48;;;;;;;4.27;3.20;;;20.30;70.60;;;;;;6195826;28;20564;-64
2022/05/23 03:29:35;;;;;;;3.73;3.13;;;20.20;70.20;;;;;;6205078;28;20236;-64
2022/05/23 03:32:39;;;;;;;7.23;3.60;;;20.20;70.10;;;;;;6205268;28;20230;-65
2022/05/23 03:35:43;;;;;;;4.27;3.57;;;20.20;70.30;;;;;;6204907;28;20248;-64
2022/05/23 03:38:47;;;;;;;4.00;3.70;;;20.20;70.40;;;;;;6204861;28;20234;-65
2022/05/23 03:41:52;;;;;;;4.23;3.67;;;20.10;70.60;;;;;;6205075;28;20677;-64
2022/05/23 03:44:57;;;;;;;4.33;3.77;;;20.10;70.70;;;;;;6204343;28;20226;-64
2022/05/23 03:48:00;;;;;;;4.60;3.27;;;20.10;70.60;;;;;;6204700;28;20234;-64
2022/05/23 03:51:04;;;;;;;4.00;3.70;;;20.00;70.80;;;;;;6204479;28;20778;-64
2022/05/23 03:54:07;;;;;;;4.70;4.07;;;20.00;71.00;;;;;;6204568;28;20237;-64
2022/05/23 03:57:11;;;;;;;4.03;3.50;;;20.00;71.00;;;;;;6204227;28;20245;-64
2022/05/23 04:00:17;;;;;;;5.20;4.10;;;20.00;70.90;;;;;;6204517;28;20230;-64
2022/05/23 04:03:20;;;;;;;4.13;3.63;;;20.10;71.00;;;;;;6204489;28;20252;-64
2022/05/23 04:06:24;;;;;;;4.97;4.57;;;20.00;71.00;;;;;;6205997;28;20234;-64
2022/05/23 04:09:27;;;;;;;4.53;4.13;;;20.00;70.80;;;;;;6204304;28;20249;-65
2022/05/23 04:12:31;;;;;;;4.17;3.77;;;20.00;70.80;;;;;;6204355;28;20234;-64
2022/05/23 04:15:35;;;;;;;4.97;4.10;;;19.90;71.10;;;;;;6203677;28;20692;-64
2022/05/23 04:18:38;;;;;;;4.20;3.83;;;20.00;70.60;;;;;;6203982;28;20221;-64
2022/05/23 04:21:42;;;;;;;4.40;3.80;;;20.00;70.70;;;;;;6198261;28;20660;-63
2022/05/23 04:24:45;;;;;;;3.80;3.50;;;19.90;70.50;;;;;;6203910;28;20221;-63
2022/05/23 04:27:54;;;;;;;4.03;3.73;;;19.90;70.20;;;;;;6179761;28;20517;-64
2022/05/23 04:30:58;;;;;;;5.10;4.60;;;19.90;70.40;;;;;;6179339;28;20633;-64
2022/05/23 04:37:22;;;;;;;4.60;3.70;;;19.80;70.40;;;;;;6179314;28;20234;-64
2022/05/23 04:40:27;;;;;;;4.30;4.00;;;19.80;71.10;;;;;;6179720;28;20238;-64
2022/05/23 04:43:30;;;;;;;7.00;4.93;;;19.70;71.80;;;;;;6179304;28;20234;-65
2022/05/23 04:46:35;;;;;;;4.90;4.50;;;19.70;72.70;;;;;;6179203;28;20230;-64
2022/05/23 04:49:41;;;;;;;5.50;4.20;;;19.70;73.70;;;;;;6178851;28;20244;-64
2022/05/23 04:52:44;;;;;;;4.90;4.40;;;19.60;74.30;;;;;;6178725;28;20226;-64
2022/05/23 04:55:47;;;;;;;4.90;4.40;;;19.50;75.70;;;;;;6178306;28;20257;-65
2022/05/23 04:58:51;;;;;;;5.27;4.20;;;19.50;76.50;;;;;;6179320;28;20230;-64
2022/05/23 05:01:55;;;;;;;4.70;4.30;;;19.40;76.50;;;;;;6178117;28;20231;-66
2022/05/23 05:04:58;;;;;;;4.53;4.13;;;19.40;76.80;;;;;;6178346;28;20238;-65
2022/05/23 05:08:19;;;;;;;4.13;3.80;;;19.40;77.60;;;;;;6178540;28;20230;-65
2022/05/23 05:11:22;;;;;;;4.47;4.07;;;19.50;77.90;;;;;;6186279;28;20332;-64
2022/05/23 05:14:26;;;;;;;5.00;4.03;;;19.50;79.00;;;;;;6178075;28;20234;-64
2022/05/23 05:17:30;;;;;;;4.67;4.27;;;19.50;78.50;;;;;;6177894;28;20779;-63
2022/05/23 05:20:34;;;;;;;6.23;4.90;;;19.50;78.20;;;;;;6178103;28;20223;-64
2022/05/23 05:23:38;;;;;;;4.37;4.07;;;19.60;77.70;;;;;;6177878;28;20251;-64
2022/05/23 05:26:41;;;;;;;5.10;4.63;;;19.70;77.70;;;;;;6191596;28;20348;-64
2022/05/23 05:29:44;;;;;;;4.87;4.00;;;19.60;77.60;;;;;;6187506;28;20673;-64
2022/05/23 05:32:54;;;;;;;3.97;3.67;;;19.70;77.30;;;;;;6201885;28;20324;-65
2022/05/23 05:36:00;;;;;;;5.67;4.50;;;19.60;77.60;;;;;;6201593;28;20242;-64
2022/05/23 05:39:05;;;;;;;4.53;3.97;;;19.60;78.10;;;;;;6202046;28;20567;-65
2022/05/23 05:42:14;;;;;;;5.90;4.27;;;19.60;77.60;;;;;;6201860;28;20226;-64
2022/05/23 05:45:22;;;;;;;4.60;4.20;;;19.70;77.80;;;;;;6201910;28;20741;-64
2022/05/23 05:48:28;;;;;;;5.03;4.43;;;19.80;77.10;;;;;;6201704;28;20242;-65
2022/05/23 05:51:33;;;;;;;3.93;3.40;;;19.90;76.30;;;;;;6202120;28;20560;-65
2022/05/23 05:54:36;;;;;;;4.37;3.97;;;19.90;75.50;;;;;;6201632;28;20252;-66
2022/05/23 05:57:40;;;;;;;4.77;4.03;;;20.00;75.30;;;;;;6202779;28;20530;-65
2022/05/23 06:00:43;;;;;;;4.40;4.00;;;20.00;75.40;;;;;;6205406;28;20197;-65
2022/05/23 06:03:48;;;;;;;4.83;4.33;;;20.10;75.30;;;;;;6202466;28;20202;-65
2022/05/23 06:13:41;;;;;;;5.80;4.60;;;20.50;73.30;;;;;;6201053;28;20233;-63
2022/05/23 06:16:44;;;;;;;6.50;4.17;;;20.50;71.40;;;;;;6201571;28;20238;-65
2022/05/23 06:19:49;;;;;;;4.53;3.87;;;20.40;71.70;;;;;;6201281;28;20238;-65
2022/05/23 06:22:52;;;;;;;4.97;4.53;;;20.40;72.30;;;;;;6201475;28;20650;-66
2022/05/23 06:25:55;;;;;;;3.90;3.40;;;20.40;72.00;;;;;;6201185;28;20237;-65
2022/05/23 06:28:58;;;;;;;4.40;4.00;;;20.50;72.40;;;;;;6201289;28;20547;-65
2022/05/23 06:32:02;;;;;;;4.13;3.80;;;20.70;72.00;;;;;;6192247;28;20281;-65
2022/05/23 06:35:07;;;;;;;6.00;4.50;;;20.80;72.40;;;;;;6201182;28;20234;-65
2022/05/23 06:38:11;;;;;;;4.03;3.60;;;20.80;71.00;;;;;;6200706;28;20226;-65
2022/05/23 06:41:14;;;;;;;4.20;3.27;;;20.80;70.40;;;;;;6201198;28;20225;-65
2022/05/23 06:44:18;;;;;;;4.70;3.90;;;20.80;69.90;;;;;;6201284;28;20240;-65
2022/05/23 06:47:21;;;;;;;4.20;3.80;;;20.80;70.20;;;;;;6205989;28;20552;-65
2022/05/23 06:50:26;;;;;;;4.83;4.13;;;21.10;69.80;;;;;;6206163;28;20229;-65
2022/05/23 06:53:29;;;;;;;4.70;4.20;;;21.30;69.00;;;;;;6206082;28;20229;-65
2022/05/23 06:56:32;;;;;;;4.07;3.77;;;21.60;68.90;;;;;;6205841;28;20325;-65
2022/05/23 06:59:36;;;;;;;5.67;3.63;;;21.80;68.40;;;;;;6206008;28;20562;-65
2022/05/23 07:02:41;;;;;;;4.77;4.00;;;21.90;68.40;;;;;;6205745;28;20528;-65
2022/05/23 07:12:41;;;;;;;4.33;3.60;;;22.30;66.60;;;;;;6204075;28;20305;-65
2022/05/23 07:15:48;;;;;;;4.30;3.90;;;22.50;66.80;;;;;;6204877;28;20229;-65
2022/05/23 07:18:51;;;;;;;4.13;3.37;;;22.70;65.40;;;;;;6204946;28;20201;-65
2022/05/23 07:21:59;;;;;;;4.07;3.60;;;22.80;65.00;;;;;;6205039;28;20209;-65
2022/05/23 07:25:03;;;;;;;4.73;4.17;;;23.00;62.80;;;;;;6204756;28;20576;-64
2022/05/23 07:28:06;;;;;;;4.30;3.40;;;23.20;60.40;;;;;;6204992;28;20229;-64
2022/05/23 07:31:11;;;;;;;5.37;3.93;;;23.40;60.90;;;;;;6205253;28;20237;-65
2022/05/23 07:34:14;;;;;;;5.50;4.30;;;23.50;60.60;;;;;;6200599;28;20222;-65
2022/05/23 07:37:20;;;;;;;3.80;3.50;;;23.60;60.00;;;;;;6204829;28;20236;-65
2022/05/23 07:40:23;;;;;;;4.93;3.87;;;23.80;59.50;;;;;;6204971;28;20221;-63
2022/05/23 07:43:28;;;;;;;6.50;3.93;;;23.70;58.10;;;;;;6202957;28;20228;-64
2022/05/23 07:46:31;;;;;;;4.10;3.17;;;23.70;57.20;;;;;;6204816;28;20230;-64
2022/05/23 07:49:34;;;;;;;5.27;4.23;;;23.60;57.50;;;;;;6204888;28;20222;-64
2022/05/23 07:52:39;;;;;;;4.10;3.80;;;23.60;58.20;;;;;;6204626;28;20665;-65
2022/05/23 08:02:24;;;;;;;5.10;4.17;;;24.40;57.50;;;;;;6204588;28;20318;-64
2022/05/23 08:05:27;;;;;;;9.77;4.73;;;24.70;57.80;;;;;;6204156;28;20234;-66
2022/05/23 08:08:31;;;;;;;6.47;4.10;;;24.80;56.40;;;;;;6204142;28;20677;-65
2022/05/23 08:11:36;;;;;;;3.43;3.23;;;24.90;56.90;;;;;;6204086;28;20565;-65
2022/05/23 08:14:39;;;;;;;5.00;4.50;;;25.10;56.40;;;;;;6204322;28;20244;-63
2022/05/23 08:17:42;;;;;;;5.57;3.83;;;25.10;56.00;;;;;;6179746;28;20251;-64
2022/05/23 08:20:46;;;;;;;6.17;3.73;;;24.80;54.20;;;;;;6179406;28;20226;-64
2022/05/23 08:23:50;;;;;;;3.57;3.30;;;24.20;54.50;;;;;;6179742;28;20234;-66
2022/05/23 08:26:54;;;;;;;3.93;3.63;;;24.10;55.50;;;;;;6179153;28;20345;-65
2022/05/23 08:29:58;;;;;;;4.90;4.47;;;24.10;56.80;;;;;;6179531;28;20316;-64
2022/05/23 08:33:01;;;;;;;4.33;3.93;;;24.00;56.90;;;;;;6179193;28;20239;-64
2022/05/23 08:36:05;;;;;;;3.40;3.10;;;24.00;56.60;;;;;;6179832;28;20235;-64
2022/05/23 08:39:10;;;;;;;4.03;3.30;;;23.90;55.80;;;;;;6179175;28;20272;-64
2022/05/23 08:42:21;;;;;;;6.37;4.40;;;23.70;55.60;;;;;;6168829;28;20304;-63
2022/05/23 08:45:30;;;;;;;3.97;3.50;;;23.40;55.80;;;;;;6202821;28;20244;-64
2022/05/23 08:48:50;;;;;;;3.60;3.30;;;23.30;56.50;;;;;;6203289;28;20240;-64
2022/05/23 08:52:05;;;;;;;5.27;3.33;;;22.70;57.70;;;;;;6178647;28;20237;-64
2022/05/23 08:55:18;;;;;;;3.90;3.60;;;22.50;58.00;;;;;;6178754;28;20554;-64
2022/05/23 08:58:27;;;;;;;5.73;4.43;;;22.60;57.50;;;;;;6197674;28;20232;-66
2022/05/23 09:01:39;;;;;;;7.93;4.20;;;22.80;57.50;;;;;;6202347;28;20593;-65
2022/05/23 09:04:53;;;;;;;5.00;4.43;;;22.40;57.80;;;;;;6202462;28;20566;-65
2022/05/23 09:07:59;;;;;;;3.90;3.50;;;22.40;58.50;;;;;;6202383;28;20230;-66
2022/05/23 09:11:09;;;;;;;3.70;3.40;;;22.50;57.90;;;;;;6202343;28;20234;-65
2022/05/23 09:14:16;;;;;;;3.70;3.33;;;22.80;57.60;;;;;;6202428;28;20233;-64
2022/05/23 09:17:24;;;;;;;4.13;3.83;;;23.10;57.50;;;;;;6202274;28;20260;-64
2022/05/23 09:20:36;;;;;;;3.63;3.30;;;23.40;58.00;;;;;;6202110;28;20677;-63
2022/05/23 09:23:47;;;;;;;4.73;3.50;;;23.60;57.40;;;;;;6202083;28;20245;-63
2022/05/23 09:26:55;;;;;;;5.20;3.30;;;23.80;57.00;;;;;;6202381;28;20328;-64
2022/05/23 09:29:59;;;;;;;6.60;4.00;;;23.90;56.50;;;;;;6204521;28;20233;-64
2022/05/23 09:33:10;;;;;;;4.97;4.47;;;23.80;56.40;;;;;;6203843;28;20238;-64
2022/05/23 09:36:18;;;;;;;4.43;3.70;;;23.30;56.60;;;;;;6202255;28;20242;-64
2022/05/23 09:39:24;;;;;;;3.97;3.10;;;23.20;57.70;;;;;;6203268;28;20363;-66
2022/05/23 09:49:47;;;;;;;3.67;3.30;;;24.10;56.70;;;;;;6158197;29;20231;-64
2022/05/23 09:52:51;;;;;;;3.67;3.30;;;24.30;55.50;;;;;;6152377;28;20616;-63
2022/05/23 09:55:55;;;;;;;5.90;3.43;;;24.40;55.80;;;;;;6199847;28;20234;-63
2022/05/23 09:59:06;;;;;;;4.17;3.57;;;24.50;54.90;;;;;;6177858;28;20560;-62
2022/05/23 10:02:23;;;;;;;4.30;3.90;;;24.20;54.70;;;;;;6177421;28;20237;-61
2022/05/23 10:05:28;;;;;;;4.23;3.90;;;24.20;54.50;;;;;;6188167;28;20818;-64
2022/05/23 10:08:34;;;;;;;6.20;4.13;;;24.40;54.30;;;;;;6201658;28;20237;-62
2022/05/23 10:11:39;;;;;;;5.17;4.20;;;24.60;54.70;;;;;;6201141;28;20230;-63
2022/05/23 10:14:48;;;;;;;5.33;3.90;;;24.80;53.90;;;;;;6201164;28;20284;-63
2022/05/23 10:18:02;;;;;;;4.63;3.50;;;24.60;54.10;;;;;;6200822;28;20541;-65
2022/05/23 10:21:27;;;;;;;5.83;3.90;;;24.80;54.00;;;;;;6200338;28;20229;-65
2022/05/23 10:24:31;;;;;;;4.27;3.70;;;25.20;53.20;;;;;;6201107;28;20233;-64
2022/05/23 10:27:42;;;;;;;4.80;4.33;;;25.50;52.50;;;;;;6200467;28;20240;-65
2022/05/23 10:30:58;;;;;;;4.37;3.80;;;25.60;51.70;;;;;;6200858;28;20276;-64
2022/05/23 10:34:07;;;;;;;6.20;3.43;;;25.20;51.60;;;;;;6201031;28;20241;-65
2022/05/23 10:37:15;;;;;;;3.70;3.23;;;25.10;52.10;;;;;;6200720;28;20308;-66
2022/05/23 10:43:52;;;;;;;6.37;3.60;;;25.40;51.60;;;;;;6200843;28;20230;-62
2022/05/23 10:47:04;;;;;;;4.13;3.67;;;25.60;51.70;;;;;;6196396;28;20238;-63
2022/05/23 10:50:25;;;;;;;4.57;4.07;;;25.20;52.30;;;;;;6200480;28;20550;-62
2022/05/23 10:53:48;;;;;;;4.73;3.30;;;25.10;53.50;;;;;;6200688;28;20244;-63
2022/05/23 10:57:01;;;;;;;3.53;3.00;;;25.60;53.20;;;;;;6200419;28;20233;-63
2022/05/23 11:00:08;;;;;;;3.90;3.60;;;26.10;52.40;;;;;;6200350;28;20653;-64
2022/05/23 11:03:29;;;;;;;4.30;3.17;;;26.30;51.70;;;;;;6200411;28;20240;-64
2022/05/23 11:06:42;;;;;;;4.27;3.37;;;26.60;51.80;;;;;;6200539;28;20685;-63
2022/05/23 11:09:54;;;;;;;4.80;3.30;;;26.80;51.30;;;;;;6200537;28;20214;-62
2022/05/23 11:13:06;;;;;;;4.17;3.87;;;26.90;51.00;;;;;;6200854;28;20249;-63
2022/05/23 11:16:19;;;;;;;3.70;3.40;;;26.60;51.00;;;;;;6200039;28;20549;-62
2022/05/23 11:19:33;;;;;;;5.03;3.93;;;26.30;51.30;;;;;;6200577;28;20241;-64
2022/05/23 11:22:42;;;;;;;4.77;4.27;;;26.50;50.60;;;;;;6199758;28;20236;-63
2022/05/23 11:25:47;;;;;;;4.20;3.90;;;26.10;50.90;;;;;;6200153;28;20328;-63
2022/05/23 11:35:48;;;;;;;5.87;3.73;;;25.90;52.70;;;;;;6180573;28;20239;-61
2022/05/23 11:38:53;;;;;;;4.73;3.03;;;26.10;52.20;;;;;;6180989;28;20236;-61
2022/05/23 11:41:56;;;;;;;5.10;3.30;;;26.30;52.30;;;;;;6180990;28;20693;-62
2022/05/23 11:48:47;;;;;;;4.67;4.33;;;26.00;51.60;;;;;;6204808;28;20321;-60
2022/05/23 11:52:01;;;;;;;5.93;4.23;;;25.40;53.10;;;;;;6171040;28;20226;-63
2022/05/23 11:55:05;;;;;;;5.43;3.90;;;25.50;53.60;;;;;;6180528;28;20269;-64
2022/05/23 11:58:18;;;;;;;4.67;4.27;;;25.20;54.30;;;;;;6188399;28;20275;-61
2022/05/23 12:01:27;;;;;;;4.37;4.00;;;25.30;54.40;;;;;;6203175;28;20244;-64
2022/05/23 12:04:30;;;;;;;5.90;4.90;;;25.60;54.20;;;;;;6202988;28;20229;-61
2022/05/23 12:08:04;;;;;;;4.40;4.00;;;25.80;53.70;;;;;;6206131;28;20233;-63
2022/05/23 12:11:22;;;;;;;3.70;3.40;;;25.50;53.80;;;;;;6208004;28;20236;-64
2022/05/23 12:14:52;;;;;;;4.70;4.23;;;25.70;54.00;;;;;;6209255;28;20696;-64
2022/05/23 12:17:58;;;;;;;3.90;3.60;;;26.10;53.30;;;;;;6206294;28;20588;-64
2022/05/23 12:21:06;;;;;;;4.70;4.30;;;26.50;52.90;;;;;;6204608;28;20233;-64
2022/05/23 12:24:26;;;;;;;4.90;4.40;;;26.60;52.00;;;;;;6204388;28;20229;-64
2022/05/23 12:28:10;;;;;;;6.37;4.60;;;26.80;51.30;;;;;;6203411;28;20237;-64
2022/05/23 12:31:16;;;;;;;4.30;3.67;;;27.00;51.10;;;;;;6202560;28;20225;-64
2022/05/23 12:34:20;;;;;;;4.93;4.53;;;26.70;51.60;;;;;;6203560;28;20370;-64
2022/05/23 12:37:29;;;;;;;4.57;3.40;;;26.70;51.80;;;;;;6203331;28;20571;-64
2022/05/23 12:40:40;;;;;;;7.13;4.37;;;26.80;52.10;;;;;;6202751;28;20239;-66
2022/05/23 12:44:05;;;;;;;4.37;3.63;;;27.00;51.70;;;;;;6202295;28;20247;-63
2022/05/23 12:47:18;;;;;;;3.83;3.53;;;27.10;51.20;;;;;;6203017;28;20261;-63
2022/05/23 12:50:31;;;;;;;9.13;5.47;;;27.10;51.10;;;;;;6203401;28;20240;-64
2022/05/23 12:53:41;;;;;;;4.77;3.63;;;27.00;50.90;;;;;;6203101;28;20369;-65
2022/05/23 12:57:08;;;;;;;5.97;4.43;;;26.60;51.70;;;;;;6192243;28;20236;-63
2022/05/23 13:00:14;;;;;;;6.47;4.60;;;26.30;51.80;;;;;;6197985;28;20229;-64
2022/05/23 13:03:29;;;;;;;5.17;4.30;;;25.90;53.30;;;;;;6204230;28;20240;-64
2022/05/23 13:06:35;;;;;;;5.17;4.67;;;25.90;52.70;;;;;;6204095;28;20229;-63
2022/05/23 13:09:44;;;;;;;5.83;5.30;;;25.80;53.00;;;;;;6204318;28;20240;-65
2022/05/23 13:12:57;;;;;;;5.80;3.83;;;25.90;53.20;;;;;;6203740;28;20222;-64
2022/05/23 13:16:20;;;;;;;8.17;4.73;;;26.10;52.50;;;;;;6181809;28;20315;-64
2022/05/23 13:22:45;;;;;;;4.60;4.20;;;25.80;53.20;;;;;;6179553;28;20226;-64
2022/05/23 13:25:48;;;;;;;5.27;3.27;;;25.50;53.80;;;;;;6178649;28;20555;-64
2022/05/23 13:28:53;;;;;;;4.07;3.67;;;25.60;54.00;;;;;;6178668;28;20226;-65
2022/05/23 13:32:00;;;;;;;6.67;3.83;;;25.80;53.70;;;;;;6178509;28;20233;-65
2022/05/23 13:35:18;;;;;;;4.73;3.97;;;26.10;53.90;;;;;;6178385;28;20244;-66
2022/05/23 13:38:25;;;;;;;4.87;4.20;;;26.40;53.70;;;;;;6178306;28;20230;-65
2022/05/23 13:41:30;;;;;;;4.23;3.90;;;26.60;53.00;;;;;;6187785;28;20231;-64
2022/05/23 13:44:35;;;;;;;5.20;4.27;;;26.90;52.50;;;;;;6201172;28;20229;-65
2022/05/23 13:47:41;;;;;;;4.80;4.40;;;26.90;53.40;;;;;;6201597;28;20693;-65
2022/05/23 13:50:47;;;;;;;4.77;4.20;;;26.90;52.70;;;;;;6200963;28;20229;-66
2022/05/23 13:53:57;;;;;;;6.47;4.63;;;26.80;52.90;;;;;;6201535;28;20241;-66
2022/05/23 13:57:08;;;;;;;6.80;4.30;;;26.50;53.40;;;;;;6201120;28;20247;-66
2022/05/23 14:00:20;;;;;;;5.17;4.77;;;26.10;54.20;;;;;;6172908;28;20238;-67
2022/05/23 14:03:28;;;;;;;4.30;3.97;;;25.90;54.70;;;;;;6197807;28;20225;-66
2022/05/23 14:06:37;;;;;;;5.13;4.40;;;25.90;55.00;;;;;;6200536;28;20658;-66
2022/05/23 14:09:46;;;;;;;11.13;10.13;;;25.60;56.10;;;;;;6200291;28;20228;-66
2022/05/23 14:12:50;;;;;;;7.93;5.10;;;25.70;56.40;;;;;;6201250;28;20214;-66
2022/05/23 14:15:55;;;;;;;6.83;6.07;;;25.90;56.00;;;;;;6200940;28;20221;-66
2022/05/23 14:19:04;;;;;;;5.83;5.33;;;25.50;57.40;;;;;;6199799;28;20206;-65
2022/05/23 14:22:12;;;;;;;6.83;5.80;;;25.50;57.00;;;;;;6200652;28;20232;-66
2022/05/23 14:25:20;;;;;;;5.13;4.70;;;25.70;56.90;;;;;;6204324;28;20625;-67
2022/05/23 14:28:27;;;;;;;7.30;6.23;;;25.90;57.10;;;;;;6212341;28;20300;-66
2022/05/23 14:31:36;;;;;;;8.67;5.83;;;25.90;57.20;;;;;;6201136;28;20246;-64
2022/05/23 14:34:41;;;;;;;6.77;5.80;;;25.70;57.60;;;;;;6200825;28;20237;-65
2022/05/23 14:37:48;;;;;;;6.33;5.73;;;25.70;57.90;;;;;;6201015;28;20582;-65
2022/05/23 14:40:52;;;;;;;6.07;5.47;;;25.60;58.00;;;;;;6200289;28;20229;-66
2022/05/23 14:44:00;;;;;;;7.87;6.10;;;25.40;58.20;;;;;;6200291;28;20232;-64
2022/05/23 14:47:09;;;;;;;6.20;5.60;;;25.00;59.40;;;;;;6200503;28;20233;-65
2022/05/23 14:50:19;;;;;;;7.20;6.60;;;24.80;60.00;;;;;;6187418;28;20234;-65
2022/05/23 14:57:04;;;;;;;6.00;5.40;;;24.60;60.70;;;;;;6200796;28;20233;-64
2022/05/23 15:03:42;;;;;;;7.27;6.50;;;24.80;61.00;;;;;;6172049;28;20389;-67
2022/05/23 15:06:45;;;;;;;6.40;5.60;;;24.90;61.00;;;;;;6198549;28;20234;-65
2022/05/23 15:09:49;;;;;;;6.87;6.27;;;25.00;61.40;;;;;;6205594;28;20209;-66
2022/05/23 15:12:52;;;;;;;7.63;6.10;;;25.00;60.70;;;;;;6205850;28;20201;-65
2022/05/23 15:16:02;;;;;;;6.00;5.50;;;24.90;61.40;;;;;;6205438;28;20235;-66
2022/05/23 15:19:08;;;;;;;7.03;6.33;;;24.80;61.50;;;;;;6205308;28;20229;-65
2022/05/23 15:22:16;;;;;;;7.83;5.63;;;24.90;61.10;;;;;;6204072;28;20243;-63
2022/05/23 15:25:20;;;;;;;5.70;5.20;;;24.90;61.40;;;;;;6203031;28;20233;-62
2022/05/23 15:28:23;;;;;;;9.43;8.43;;;25.00;61.40;;;;;;6205132;28;20236;-63
2022/05/23 15:31:27;;;;;;;6.43;5.73;;;25.10;62.00;;;;;;6203474;28;20232;-63
2022/05/23 15:34:32;;;;;;;6.17;5.67;;;25.10;61.70;;;;;;6202737;28;20230;-59
2022/05/23 15:37:35;;;;;;;10.00;5.90;;;25.20;61.30;;;;;;6203571;28;20233;-61
2022/05/23 15:40:39;;;;;;;5.80;5.30;;;25.30;61.30;;;;;;6204594;28;20231;-58
2022/05/23 15:43:42;;;;;;;5.87;5.33;;;25.30;61.40;;;;;;6203498;28;20225;-59
2022/05/23 15:46:47;;;;;;;6.57;5.97;;;25.30;61.30;;;;;;6205389;28;20260;-63
2022/05/23 15:49:52;;;;;;;8.70;6.23;;;25.30;61.60;;;;;;6205750;28;20323;-64
2022/05/23 15:52:55;;;;;;;6.10;5.70;;;25.20;61.30;;;;;;6204744;28;20238;-63
2022/05/23 15:55:59;;;;;;;5.93;5.30;;;25.20;61.50;;;;;;6204994;28;20233;-65
2022/05/23 15:59:03;;;;;;;7.00;5.87;;;24.80;62.40;;;;;;6205370;28;20229;-61
2022/05/23 16:02:09;;;;;;;5.90;5.40;;;24.70;62.50;;;;;;6204597;28;20229;-61
2022/05/23 16:05:15;;;;;;;7.50;5.57;;;24.60;62.70;;;;;;6204189;28;20249;-61
2022/05/23 16:08:19;;;;;;;6.03;5.53;;;24.40;63.80;;;;;;6190471;28;20238;-64
2022/05/23 16:11:26;;;;;;;6.00;5.47;;;24.30;64.20;;;;;;6204264;28;20225;-63
2022/05/23 16:14:32;;;;;;;6.87;5.97;;;24.20;64.10;;;;;;6204447;28;20236;-65
2022/05/23 16:17:36;;;;;;;5.67;5.20;;;24.10;64.80;;;;;;6203549;28;20234;-66
2022/05/23 16:20:42;;;;;;;6.73;5.60;;;24.10;65.80;;;;;;6203787;28;20236;-67
2022/05/23 16:23:46;;;;;;;6.07;5.57;;;24.10;65.00;;;;;;6204438;28;20571;-65
2022/05/23 16:26:49;;;;;;;6.10;5.60;;;24.00;65.20;;;;;;6203614;28;20238;-65
2022/05/23 16:29:52;;;;;;;7.37;5.73;;;24.10;65.30;;;;;;6203644;28;20234;-65
2022/05/23 16:36:47;;;;;;;7.50;5.20;;;23.80;66.40;;;;;;6168002;28;20316;-64
2022/05/23 16:39:50;;;;;;;6.87;6.10;;;23.90;66.20;;;;;;6203525;28;20641;-64
2022/05/23 16:42:58;;;;;;;7.47;6.87;;;23.90;65.80;;;;;;6203447;28;20194;-65
2022/05/23 16:46:02;;;;;;;7.30;6.43;;;23.90;66.10;;;;;;6203978;28;20225;-62
2022/05/23 16:49:05;;;;;;;8.00;6.30;;;23.80;66.60;;;;;;6203389;28;20236;-64
2022/05/23 16:52:10;;;;;;;7.50;6.80;;;23.60;66.70;;;;;;6203538;28;20226;-63
2022/05/23 16:55:20;;;;;;;5.80;5.20;;;23.60;67.20;;;;;;6203146;28;20356;-64
2022/05/23 16:58:23;;;;;;;12.37;5.90;;;23.60;67.20;;;;;;6202149;28;20230;-65
2022/05/23 17:01:26;;;;;;;6.27;5.67;;;23.60;67.80;;;;;;6201874;28;20566;-65
2022/05/23 17:04:30;;;;;;;6.57;5.97;;;23.40;67.90;;;;;;6202584;28;20386;-64
2022/05/23 17:07:34;;;;;;;6.50;6.03;;;23.40;68.20;;;;;;6201679;28;20304;-64
2022/05/23 17:10:38;;;;;;;7.00;6.13;;;23.30;68.60;;;;;;6192638;28;20230;-63
2022/05/23 17:13:41;;;;;;;6.07;5.47;;;23.30;68.80;;;;;;6179248;28;20235;-62
2022/05/23 17:16:45;;;;;;;6.53;5.93;;;23.30;68.90;;;;;;6201745;28;20716;-62
2022/05/23 17:19:51;;;;;;;6.40;5.87;;;23.40;69.30;;;;;;6202593;28;20320;-62
2022/05/23 17:23:17;;;;;;;9.20;5.90;;;23.40;69.30;;;;;;6202788;28;20233;-62
2022/05/23 17:26:20;;;;;;;6.83;5.87;;;23.40;69.30;;;;;;6203246;28;20238;-62